createdAt,value
2023-02-12T00:02:36.571Z,99329.56
2023-02-12T00:06:38.197Z,99335.44
2023-02-12T00:10:40.446Z,99323.22
2023-02-12T00:14:41.821Z,99323.84
2023-02-12T00:18:45.229Z,99329.72
2023-02-12T00:22:46.598Z,99329.31
2023-02-12T00:26:47.918Z,99327.41
2023-02-12T00:30:49.587Z,99334.56
2023-02-12T00:34:52.398Z,99333.94
2023-02-12T00:38:55.888Z,99332.94
2023-02-12T00:42:57.243Z,99345.06
2023-02-12T00:46:58.580Z,99334.19
2023-02-12T00:51:01.491Z,99344.13
2023-02-12T00:55:02.922Z,99349.53
2023-02-12T00:59:04.287Z,99344.13
2023-02-12T01:03:05.839Z,99342.59
2023-02-12T01:07:08.986Z,99368.47
2023-02-12T01:11:12.685Z,99361.25
2023-02-12T01:15:14.749Z,99366.31
2023-02-12T01:19:16.359Z,99362.75
2023-02-12T01:23:19.063Z,99359.81
2023-02-12T01:27:20.406Z,99357.91
2023-02-12T01:31:23.157Z,99361.69
2023-02-12T01:35:24.628Z,99362.50
2023-02-12T01:39:27.347Z,99358.06
2023-02-12T01:43:28.706Z,99358.72
2023-02-12T01:47:30.130Z,99363.31
2023-02-12T01:51:33.065Z,99356.16
2023-02-12T01:55:35.822Z,99363.09
2023-02-12T01:59:37.846Z,99362.63
2023-02-12T02:03:39.802Z,99366.22
2023-02-12T02:07:43.382Z,99372.75
2023-02-12T02:11:46.135Z,99373.94
2023-02-12T02:15:49.277Z,99379.22
2023-02-12T02:20:02.427Z,99368.94
2023-02-12T02:24:26.556Z,99369.38
2023-02-12T02:28:39.954Z,99366.41
2023-02-12T02:32:46.250Z,99362.47
2023-02-12T02:37:00.020Z,99364.56
2023-02-12T02:41:04.902Z,99361.78
2023-02-12T02:45:11.690Z,99359.22
2023-02-12T02:49:19.399Z,99361.13
2023-02-12T02:53:22.130Z,99361.59
2023-02-12T02:57:25.494Z,99369.75
2023-02-12T03:01:28.967Z,99359.91
2023-02-12T03:05:33.497Z,99362.88
2023-02-12T03:09:37.694Z,99372.53
2023-02-12T03:13:42.005Z,99367.16
2023-02-12T03:17:45.177Z,99369.78
2023-02-12T03:21:49.607Z,99378.41
2023-02-12T03:25:53.671Z,99375.22
2023-02-12T03:29:55.570Z,99378.16
2023-02-12T03:34:04.219Z,99380.06
2023-02-12T03:38:09.382Z,99382.19
2023-02-12T03:42:13.915Z,99389.31
2023-02-12T03:46:17.401Z,99391.25
2023-02-12T03:50:20.472Z,99390.63
2023-02-12T03:54:23.294Z,99391.69
2023-02-12T03:58:28.443Z,99398.31
2023-02-12T04:02:29.814Z,99398.88
2023-02-12T04:06:31.191Z,99405.84
2023-02-12T04:10:35.913Z,99404.09
2023-02-12T04:14:42.053Z,99404.91
2023-02-12T04:18:44.669Z,99407.84
2023-02-12T04:22:50.488Z,99413.34
2023-02-12T04:26:56.650Z,99410.56
2023-02-12T04:30:59.797Z,99408.47
2023-02-12T04:35:04.217Z,99416.94
2023-02-12T04:39:08.468Z,99431.41
2023-02-12T04:43:11.305Z,99423.19
2023-02-12T04:47:13.141Z,99426.16
2023-02-12T04:51:14.498Z,99433.28
2023-02-12T04:55:15.953Z,99438.09
2023-02-12T04:59:18.761Z,99439.69
2023-02-12T05:03:20.114Z,99431.53
2023-02-12T05:07:21.495Z,99432.78
2023-02-12T05:11:23.139Z,99436.19
2023-02-12T05:15:25.907Z,99426.66
2023-02-12T05:19:27.281Z,99438.25
2023-02-12T05:23:29.406Z,99438.72
2023-02-12T05:27:30.807Z,99438.41
2023-02-12T05:31:33.957Z,99437.09
2023-02-12T05:35:35.680Z,99453.59
2023-02-12T05:39:37.053Z,99456.16
2023-02-12T05:43:38.742Z,99447.25
2023-02-12T05:47:41.490Z,99440.22
2023-02-12T05:51:42.873Z,99446.22
2023-02-12T05:55:44.213Z,99454.41
2023-02-12T05:59:45.620Z,99457.41
2023-02-12T06:03:48.425Z,99455.44
2023-02-12T06:07:49.826Z,99454.94
2023-02-12T06:11:51.259Z,99465.16
2023-02-12T06:15:52.706Z,99462.72
2023-02-12T06:19:55.479Z,99471.22
2023-02-12T06:23:57.052Z,99473.94
2023-02-12T06:27:58.489Z,99474.38
2023-02-12T06:31:59.946Z,99486.09
2023-02-12T06:36:04.366Z,99489.88
2023-02-12T06:40:06.617Z,99489.09
2023-02-12T06:44:08.094Z,99498.75
2023-02-12T06:48:09.498Z,99504.25
2023-02-12T06:52:12.235Z,99500.50
2023-02-12T06:56:13.690Z,99510.38
2023-02-12T07:00:15.288Z,99515.94
2023-02-12T07:04:16.731Z,99516.16
2023-02-12T07:08:19.505Z,99504.59
2023-02-12T07:12:20.894Z,99505.69
2023-02-12T07:16:22.746Z,99513.88
2023-02-12T07:20:24.194Z,99515.34
2023-02-12T07:24:27.023Z,99503.34
2023-02-12T07:28:28.435Z,99514.03
2023-02-12T07:32:31.351Z,99511.19
2023-02-12T07:36:33.636Z,99510.03
2023-02-12T07:40:36.386Z,99514.59
2023-02-12T07:44:37.748Z,99510.63
2023-02-12T07:48:39.495Z,99514.03
2023-02-12T07:52:40.832Z,99513.38
2023-02-12T07:56:44.285Z,99525.66
2023-02-12T08:00:45.724Z,99516.63
2023-02-12T08:04:47.227Z,99518.53
2023-02-12T08:08:50.533Z,99514.16
2023-02-12T08:12:53.266Z,99523.00
2023-02-12T08:16:54.694Z,99527.63
2023-02-12T08:21:00.731Z,99529.31
2023-02-12T08:25:02.129Z,99528.03
2023-02-12T08:29:06.143Z,99522.34
2023-02-12T08:33:07.481Z,99529.06
2023-02-12T08:37:08.837Z,99529.84
2023-02-12T08:41:11.220Z,99523.34
2023-02-12T08:45:14.104Z,99530.09
2023-02-12T08:49:16.294Z,99522.91
2023-02-12T08:53:17.706Z,99524.13
2023-02-12T08:57:19.093Z,99516.25
2023-02-12T09:01:23.021Z,99526.34
2023-02-12T09:05:24.555Z,99526.84
2023-02-12T09:09:25.905Z,99528.09
2023-02-12T09:13:27.250Z,99530.28
2023-02-12T09:17:29.986Z,99532.81
2023-02-12T09:21:31.401Z,99541.78
2023-02-12T09:25:32.877Z,99544.75
2023-02-12T09:29:34.242Z,99540.69
2023-02-12T09:33:37.052Z,99535.41
2023-02-12T09:37:38.452Z,99531.66
2023-02-12T09:41:54.695Z,99538.75
2023-02-12T09:46:00.673Z,99540.53
2023-02-12T09:50:11.976Z,99543.00
2023-02-12T09:54:14.405Z,99539.88
2023-02-12T09:58:17.975Z,99540.06
2023-02-12T10:02:20.059Z,99540.44
2023-02-12T10:06:24.662Z,99547.88
2023-02-12T10:10:36.191Z,99552.56
2023-02-12T10:14:46.381Z,99544.66
2023-02-12T10:19:06.247Z,99546.53
2023-02-12T10:23:18.404Z,99544.97
2023-02-12T10:27:24.849Z,99541.75
2023-02-12T10:31:30.381Z,99541.75
2023-02-12T10:35:32.799Z,99537.09
2023-02-12T10:39:39.378Z,99550.75
2023-02-12T10:43:40.935Z,99541.75
2023-02-12T10:47:42.723Z,99537.63
2023-02-12T10:51:52.145Z,99540.16
2023-02-12T10:56:06.725Z,99536.66
2023-02-12T11:00:21.258Z,99538.06
2023-02-12T11:04:26.987Z,99530.88
2023-02-12T11:08:31.039Z,99534.09
2023-02-12T11:12:35.352Z,99529.13
2023-02-12T11:16:37.787Z,99528.13
2023-02-12T11:20:40.765Z,99531.47
2023-02-12T11:24:42.111Z,99523.69
2023-02-12T11:28:53.172Z,99519.78
2023-02-12T11:32:54.615Z,99517.63
2023-02-12T11:36:56.593Z,99517.84
2023-02-12T11:41:00.366Z,99514.97
2023-02-12T11:45:03.486Z,99512.84
2023-02-12T11:49:06.004Z,99508.16
2023-02-12T11:53:08.780Z,99501.81
2023-02-12T11:57:33.119Z,99516.63
2023-02-12T12:01:36.945Z,99506.03
2023-02-12T12:05:42.000Z,99513.66
2023-02-12T12:09:45.771Z,99512.69
2023-02-12T12:13:49.300Z,99499.22
2023-02-12T12:17:54.413Z,99506.50
2023-02-12T12:21:58.757Z,99500.97
2023-02-12T12:26:04.479Z,99503.56
2023-02-12T12:30:11.425Z,99504.16
2023-02-12T12:34:15.156Z,99500.72
2023-02-12T12:38:21.699Z,99496.94
2023-02-12T12:42:32.604Z,99491.06
2023-02-12T12:46:52.312Z,99491.16
2023-02-12T12:51:02.733Z,99492.81
2023-02-12T12:55:14.089Z,99490.75
2023-02-12T12:59:29.187Z,99487.03
2023-02-12T13:03:50.654Z,99487.41
2023-02-12T13:07:59.439Z,99490.50
2023-02-12T13:12:13.918Z,99483.78
2023-02-12T13:16:19.306Z,99481.09
2023-02-12T13:20:25.407Z,99483.13
2023-02-12T13:24:33.567Z,99478.59
2023-02-12T13:28:36.656Z,99490.81
2023-02-12T13:32:41.052Z,99485.94
2023-02-12T13:36:42.775Z,99483.47
2023-02-12T13:40:45.576Z,99480.88
2023-02-12T13:44:50.756Z,99482.97
2023-02-12T13:48:56.676Z,99485.56
2023-02-12T13:52:59.803Z,99482.56
2023-02-12T13:57:03.555Z,99484.84
2023-02-12T14:01:05.743Z,99480.41
2023-02-12T14:05:15.238Z,99482.66
2023-02-12T14:09:20.184Z,99482.06
2023-02-12T14:13:24.029Z,99485.75
2023-02-12T14:17:41.610Z,99483.69
2023-02-12T14:21:43.125Z,99481.44
2023-02-12T14:25:46.439Z,99485.66
2023-02-12T14:30:01.403Z,99487.03
2023-02-12T14:34:21.342Z,99482.72
2023-02-12T14:38:47.543Z,99479.22
2023-02-12T14:42:55.193Z,99480.31
2023-02-12T14:46:59.029Z,99475.41
2023-02-12T14:51:02.111Z,99471.34
2023-02-12T14:55:05.203Z,99477.91
2023-02-12T14:59:06.843Z,99478.44
2023-02-12T15:03:18.668Z,99471.50
2023-02-12T15:07:24.265Z,99468.50
2023-02-12T15:11:33.978Z,99464.47
2023-02-12T15:15:39.154Z,99470.28
2023-02-12T15:19:43.437Z,99463.91
2023-02-12T15:23:45.534Z,99462.19
2023-02-12T15:27:48.752Z,99461.13
2023-02-12T15:31:51.294Z,99459.50
2023-02-12T15:35:54.737Z,99463.34
2023-02-12T15:39:58.000Z,99457.88
2023-02-12T15:43:59.696Z,99454.34
2023-02-12T15:48:07.099Z,99461.28
2023-02-12T15:52:15.354Z,99453.59
2023-02-12T15:56:17.960Z,99457.69
2023-02-12T16:00:27.168Z,99461.53
2023-02-12T16:04:30.287Z,99457.84
2023-02-12T16:08:33.413Z,99456.59
2023-02-12T16:12:35.782Z,99452.66
2023-02-12T16:16:40.150Z,99456.94
2023-02-12T16:20:41.549Z,99467.25
2023-02-12T16:24:46.494Z,99473.34
2023-02-12T16:28:48.548Z,99472.03
2023-02-12T16:32:50.749Z,99481.47
2023-02-12T16:36:52.097Z,99483.50
2023-02-12T16:45:35.717Z,99486.94
2023-02-12T16:49:37.065Z,99490.69
2023-02-12T16:53:39.487Z,99494.41
2023-02-12T16:57:41.262Z,99493.41
2023-02-12T17:01:55.773Z,99502.13
2023-02-12T17:05:57.604Z,99506.28
2023-02-12T17:09:59.314Z,99512.75
2023-02-12T17:14:00.658Z,99522.88
2023-02-12T17:18:03.562Z,99519.59
2023-02-12T17:22:05.019Z,99520.97
2023-02-12T17:26:06.376Z,99516.19
2023-02-12T17:30:08.706Z,99518.25
2023-02-12T17:34:11.448Z,99532.66
2023-02-12T17:38:12.846Z,99527.47
2023-02-12T17:42:14.210Z,99530.72
2023-02-12T17:46:18.413Z,99527.13
2023-02-12T17:50:21.286Z,99534.19
2023-02-12T17:54:22.772Z,99525.47
2023-02-12T17:58:24.131Z,99529.44
2023-02-12T18:02:25.520Z,99524.03
2023-02-12T18:06:29.162Z,99529.31
2023-02-12T18:10:30.497Z,99534.22
2023-02-12T18:14:31.851Z,99534.88
2023-02-12T18:18:33.564Z,99535.53
2023-02-12T18:22:36.294Z,99531.19
2023-02-12T18:26:37.616Z,99523.47
2023-02-12T18:30:39.551Z,99524.69
2023-02-12T18:34:41.236Z,99528.25
2023-02-12T18:38:45.282Z,99519.91
2023-02-12T18:42:46.631Z,99522.91
2023-02-12T18:46:48.026Z,99527.34
2023-02-12T18:50:49.407Z,99524.00
2023-02-12T18:54:52.161Z,99530.41
2023-02-12T18:58:56.940Z,99526.44
2023-02-12T19:02:58.278Z,99523.38
2023-02-12T19:06:59.793Z,99520.44
2023-02-12T19:11:02.514Z,99522.59
2023-02-12T19:15:04.016Z,99522.78
2023-02-12T19:19:05.521Z,99526.81
2023-02-12T19:23:06.923Z,99519.50
2023-02-12T19:27:09.660Z,99530.03
2023-02-12T19:31:13.441Z,99532.97
2023-02-12T19:35:15.672Z,99529.25
2023-02-12T19:39:18.152Z,99530.50
2023-02-12T19:43:20.885Z,99524.53
2023-02-12T19:47:22.258Z,99538.56
2023-02-12T19:51:23.612Z,99534.59
2023-02-12T19:55:24.987Z,99540.19
2023-02-12T19:59:27.722Z,99534.34
2023-02-12T20:03:29.088Z,99530.66
2023-02-12T20:07:30.517Z,99525.97
2023-02-12T20:11:33.227Z,99533.63
2023-02-12T20:15:36.521Z,99534.63
2023-02-12T20:19:37.950Z,99545.50
2023-02-12T20:23:39.335Z,99548.38
2023-02-12T20:27:40.668Z,99552.19
2023-02-12T20:31:43.689Z,99542.72
2023-02-12T20:35:45.085Z,99551.75
2023-02-12T20:39:46.478Z,99545.59
2023-02-12T20:43:48.244Z,99548.72
2023-02-12T20:47:51.022Z,99542.22
2023-02-12T20:51:52.399Z,99543.06
2023-02-12T20:55:53.762Z,99549.31
2023-02-12T20:59:55.168Z,99545.59
2023-02-12T21:04:00.903Z,99544.44
2023-02-12T21:08:02.220Z,99552.44
2023-02-12T21:12:03.789Z,99551.50
2023-02-12T21:16:06.754Z,99544.94
2023-02-12T21:20:10.009Z,99549.75
2023-02-12T21:24:13.026Z,99552.66
2023-02-12T21:28:14.430Z,99549.84
2023-02-12T21:32:16.013Z,99554.19
2023-02-12T21:36:20.150Z,99551.31
2023-02-12T21:40:22.066Z,99549.69
2023-02-12T21:44:24.127Z,99545.09
2023-02-12T21:48:25.479Z,99537.75
2023-02-12T21:52:28.208Z,99545.09
2023-02-12T21:56:29.916Z,99529.16
2023-02-12T22:00:31.364Z,99535.41
2023-02-12T22:04:32.800Z,99528.72
2023-02-12T22:08:35.922Z,99523.44
2023-02-12T22:12:37.302Z,99527.63
2023-02-12T22:16:38.771Z,99528.41
2023-02-12T22:20:40.229Z,99536.53
2023-02-12T22:24:43.113Z,99531.72
2023-02-12T22:28:45.883Z,99529.72
2023-02-12T22:32:47.286Z,99531.00
2023-02-12T22:36:48.701Z,99523.59
2023-02-12T22:40:52.977Z,99536.31
2023-02-12T22:44:54.371Z,99525.31
2023-02-12T22:48:55.797Z,99539.91
2023-02-12T22:52:57.198Z,99532.25
2023-02-12T22:56:59.917Z,99530.72
2023-02-12T23:01:04.425Z,99533.25
2023-02-12T23:05:05.830Z,99531.88
2023-02-12T23:09:14.902Z,99529.59
2023-02-12T23:13:29.055Z,99523.78
2023-02-12T23:17:31.147Z,99532.16
2023-02-12T23:21:32.532Z,99532.41
2023-02-12T23:25:34.069Z,99529.84
2023-02-12T23:29:36.810Z,99532.88
2023-02-12T23:33:38.257Z,99529.72
2023-02-12T23:37:39.626Z,99532.81
2023-02-12T23:41:41.045Z,99522.59
2023-02-12T23:45:44.195Z,99522.34
2023-02-12T23:49:45.599Z,99521.47
2023-02-12T23:53:46.966Z,99518.25
2023-02-12T23:57:48.322Z,99516.91
